createdAt,value
2024-04-18T00:00:19.933Z,3.60
2024-04-18T00:01:19.890Z,3.40
2024-04-18T00:02:19.834Z,3.20
2024-04-18T00:03:19.897Z,3.00
2024-04-18T00:04:20.042Z,3.50
2024-04-18T00:05:19.878Z,3.30
2024-04-18T00:06:19.868Z,3.50
2024-04-18T00:07:19.807Z,3.30
2024-04-18T00:08:19.774Z,3.50
2024-04-18T00:09:19.788Z,3.50
2024-04-18T00:10:19.758Z,3.30
2024-04-18T00:11:19.778Z,3.40
2024-04-18T00:12:19.735Z,3.30
2024-04-18T00:13:19.760Z,3.50
2024-04-18T00:14:19.704Z,3.30
2024-04-18T00:15:19.705Z,3.30
2024-04-18T00:16:19.673Z,3.30
2024-04-18T00:17:19.788Z,3.40
2024-04-18T00:18:20.020Z,3.40
2024-04-18T00:19:19.734Z,3.40
2024-04-18T00:20:19.627Z,3.40
2024-04-18T00:21:19.648Z,3.80
2024-04-18T00:22:19.604Z,3.60
2024-04-18T00:23:19.599Z,4.00
2024-04-18T00:24:19.645Z,3.30
2024-04-18T00:25:19.603Z,3.30
2024-04-18T00:26:19.566Z,3.40
2024-04-18T00:27:19.598Z,3.60
2024-04-18T00:28:19.534Z,3.00
2024-04-18T00:29:19.582Z,3.50
2024-04-18T00:30:19.544Z,3.40
2024-04-18T00:31:19.506Z,3.50
2024-04-18T00:32:19.549Z,3.60
2024-04-18T00:33:19.548Z,3.40
2024-04-18T00:34:19.476Z,3.30
2024-04-18T00:35:19.496Z,3.20
2024-04-18T00:36:19.496Z,3.40
2024-04-18T00:37:19.437Z,3.40
2024-04-18T00:38:19.432Z,3.40
2024-04-18T00:39:19.455Z,3.80
2024-04-18T00:40:19.410Z,3.80
2024-04-18T00:41:19.442Z,3.40
2024-04-18T00:42:19.416Z,3.30
2024-04-18T00:43:19.373Z,3.20
2024-04-18T00:44:19.367Z,3.50
2024-04-18T00:45:19.386Z,3.20
2024-04-18T00:46:19.337Z,2.80
2024-04-18T00:47:19.356Z,3.60
2024-04-18T00:48:19.412Z,3.00
2024-04-18T00:49:19.356Z,3.20
2024-04-18T00:50:19.312Z,3.30
2024-04-18T00:51:19.331Z,3.50
2024-04-18T00:52:19.317Z,3.30
2024-04-18T00:53:19.258Z,3.50
2024-04-18T00:54:19.282Z,3.30
2024-04-18T00:55:19.244Z,3.20
2024-04-18T00:56:19.246Z,3.10
2024-04-18T00:57:19.405Z,3.30
2024-04-18T00:58:19.252Z,3.20
2024-04-18T00:59:19.185Z,3.00
2024-04-18T01:00:19.232Z,2.90
2024-04-18T01:01:19.244Z,3.10
2024-04-18T01:02:19.163Z,3.20
2024-04-18T01:03:19.255Z,3.10
2024-04-18T01:04:19.252Z,3.40
2024-04-18T01:05:19.162Z,3.40
2024-04-18T01:06:19.133Z,3.10
2024-04-18T01:07:19.121Z,3.40
2024-04-18T01:08:19.091Z,3.50
2024-04-18T01:09:19.157Z,3.30
2024-04-18T01:10:19.072Z,3.20
2024-04-18T01:11:19.098Z,2.90
2024-04-18T01:12:19.099Z,3.90
2024-04-18T01:13:19.027Z,3.30
2024-04-18T01:14:19.035Z,3.10
2024-04-18T01:15:19.030Z,3.10
2024-04-18T01:16:19.003Z,3.10
2024-04-18T01:17:19.014Z,3.60
2024-04-18T01:18:18.996Z,3.00
2024-04-18T01:19:18.978Z,3.30
2024-04-18T01:20:18.972Z,3.40
2024-04-18T01:21:18.989Z,3.30
2024-04-18T01:22:18.964Z,3.20
2024-04-18T01:23:18.934Z,3.10
2024-04-18T01:24:18.962Z,3.20
2024-04-18T01:25:18.935Z,3.20
2024-04-18T01:26:18.938Z,3.30
2024-04-18T01:27:18.951Z,3.20
2024-04-18T01:28:18.862Z,2.90
2024-04-18T01:29:18.868Z,2.90
2024-04-18T01:30:18.896Z,3.10
2024-04-18T01:31:18.834Z,2.90
2024-04-18T01:32:18.811Z,3.20
2024-04-18T01:33:18.924Z,3.60
2024-04-18T01:34:18.898Z,3.60
2024-04-18T01:35:18.779Z,3.50
2024-04-18T01:36:18.862Z,3.70
2024-04-18T01:37:18.756Z,3.30
2024-04-18T01:38:18.756Z,3.60
2024-04-18T01:39:18.764Z,3.40
2024-04-18T01:40:18.906Z,2.90
2024-04-18T01:41:18.726Z,3.60
2024-04-18T01:42:18.752Z,3.80
2024-04-18T01:43:18.748Z,3.60
2024-04-18T01:44:18.667Z,3.60
2024-04-18T01:45:18.710Z,3.20
2024-04-18T01:46:18.653Z,3.10
2024-04-18T01:47:18.714Z,3.20
2024-04-18T01:48:18.819Z,3.20
2024-04-18T01:49:18.666Z,3.40
2024-04-18T01:50:18.611Z,3.20
2024-04-18T01:51:18.644Z,3.40
2024-04-18T01:52:18.616Z,3.20
2024-04-18T01:53:18.598Z,3.60
2024-04-18T01:54:18.581Z,3.40
2024-04-18T01:55:18.573Z,3.40
2024-04-18T01:56:18.548Z,3.50
2024-04-18T01:57:18.564Z,3.80
2024-04-18T01:58:18.531Z,3.80
2024-04-18T01:59:18.529Z,4.10
2024-04-18T02:00:18.612Z,3.70
2024-04-18T02:01:18.492Z,3.80
2024-04-18T02:02:18.472Z,3.30
2024-04-18T02:03:18.525Z,3.00
2024-04-18T02:04:18.619Z,3.60
2024-04-18T02:05:18.446Z,3.70
2024-04-18T02:06:18.468Z,3.90
2024-04-18T02:07:18.416Z,3.50
2024-04-18T02:08:18.415Z,4.30
2024-04-18T02:09:18.454Z,3.80
2024-04-18T02:10:18.390Z,3.50
2024-04-18T02:11:18.450Z,3.30
2024-04-18T02:12:18.395Z,3.90
2024-04-18T02:13:18.352Z,4.20
2024-04-18T02:14:18.352Z,3.50
2024-04-18T02:15:18.345Z,4.10
2024-04-18T02:16:18.314Z,3.60
2024-04-18T02:17:18.324Z,4.10
2024-04-18T02:18:18.341Z,3.50
2024-04-18T02:19:18.286Z,4.00
2024-04-18T02:20:18.284Z,3.40
2024-04-18T02:21:18.303Z,3.70
2024-04-18T02:22:18.262Z,3.60
2024-04-18T02:23:18.244Z,3.80
2024-04-18T02:24:18.250Z,3.90
2024-04-18T02:25:18.232Z,3.90
2024-04-18T02:26:18.199Z,3.50
2024-04-18T02:27:18.242Z,3.70
2024-04-18T02:28:18.188Z,3.70
2024-04-18T02:29:18.172Z,3.70
2024-04-18T02:30:18.239Z,3.90
2024-04-18T02:31:18.147Z,3.50
2024-04-18T02:32:18.195Z,3.60
2024-04-18T02:33:18.330Z,4.00
2024-04-18T02:34:18.095Z,3.80
2024-04-18T02:35:18.101Z,3.80
2024-04-18T02:36:18.111Z,3.70
2024-04-18T02:37:18.069Z,3.80
2024-04-18T02:38:18.072Z,3.60
2024-04-18T02:39:18.109Z,3.80
2024-04-18T02:40:18.034Z,4.30
2024-04-18T02:41:18.056Z,3.60
2024-04-18T02:42:18.073Z,3.70
2024-04-18T02:43:18.009Z,3.70
2024-04-18T02:44:17.989Z,3.40
2024-04-18T02:45:18.044Z,4.10
2024-04-18T02:46:17.985Z,3.90
2024-04-18T02:47:17.998Z,3.50
2024-04-18T02:48:18.012Z,3.70
2024-04-18T02:49:17.952Z,3.60
2024-04-18T02:50:17.932Z,3.60
2024-04-18T02:51:17.966Z,3.50
2024-04-18T02:52:17.928Z,3.20
2024-04-18T02:53:17.897Z,3.80
2024-04-18T02:54:17.894Z,3.20
2024-04-18T02:55:17.908Z,3.60
2024-04-18T02:56:17.881Z,3.60
2024-04-18T02:57:17.920Z,3.40
2024-04-18T02:58:17.851Z,3.20
2024-04-18T02:59:17.862Z,3.20
2024-04-18T03:00:17.914Z,3.60
2024-04-18T03:01:17.994Z,3.70
2024-04-18T03:02:17.816Z,3.40
2024-04-18T03:03:17.834Z,3.40
2024-04-18T03:04:17.821Z,3.30
2024-04-18T03:05:17.774Z,3.60
2024-04-18T03:06:17.805Z,3.50
2024-04-18T03:07:17.738Z,3.10
2024-04-18T03:08:17.739Z,3.70
2024-04-18T03:09:17.735Z,3.30
2024-04-18T03:10:18.450Z,3.30
2024-04-18T03:11:17.753Z,3.80
2024-04-18T03:12:17.691Z,3.50
2024-04-18T03:13:17.688Z,3.40
2024-04-18T03:14:17.687Z,3.40
2024-04-18T03:15:17.706Z,3.10
2024-04-18T03:16:17.638Z,3.40
2024-04-18T03:17:17.683Z,2.90
2024-04-18T03:18:17.716Z,3.60
2024-04-18T03:19:17.658Z,3.30
2024-04-18T03:20:17.588Z,3.60
2024-04-18T03:21:17.599Z,3.30
2024-04-18T03:22:17.570Z,3.20
2024-04-18T03:23:17.562Z,4.00
2024-04-18T03:24:17.576Z,3.20
2024-04-18T03:25:17.531Z,3.10
2024-04-18T03:26:17.556Z,3.70
2024-04-18T03:27:17.557Z,3.60
2024-04-18T03:28:17.501Z,3.80
2024-04-18T03:29:17.504Z,3.40
2024-04-18T03:30:17.501Z,3.40
2024-04-18T03:31:17.456Z,3.10
2024-04-18T03:32:17.519Z,3.30
2024-04-18T03:33:17.564Z,3.20
2024-04-18T03:34:17.459Z,3.30
2024-04-18T03:35:17.419Z,3.80
2024-04-18T03:36:17.456Z,3.20
2024-04-18T03:37:17.512Z,3.20
2024-04-18T03:38:17.390Z,4.00
2024-04-18T03:39:17.455Z,3.40
2024-04-18T03:40:17.392Z,3.70
2024-04-18T03:41:17.386Z,3.50
2024-04-18T03:42:17.356Z,3.60
2024-04-18T03:43:17.338Z,3.10
2024-04-18T03:44:17.347Z,3.50
2024-04-18T03:45:17.342Z,3.30
2024-04-18T03:46:18.018Z,3.30
2024-04-18T03:47:17.314Z,3.00
2024-04-18T03:48:17.386Z,3.50
2024-04-18T03:49:17.280Z,2.80
2024-04-18T03:50:17.282Z,3.30
2024-04-18T03:51:17.248Z,3.40
2024-04-18T03:52:17.230Z,3.50
2024-04-18T03:53:17.206Z,3.50
2024-04-18T03:54:17.240Z,3.70
2024-04-18T03:55:17.293Z,3.40
2024-04-18T03:56:17.185Z,3.20
2024-04-18T03:57:17.193Z,3.10
2024-04-18T03:58:17.177Z,3.00
2024-04-18T03:59:17.165Z,3.60
2024-04-18T04:00:17.191Z,3.20
2024-04-18T04:01:17.302Z,3.10
2024-04-18T04:02:17.137Z,3.20
2024-04-18T04:03:17.280Z,3.30
2024-04-18T04:04:17.240Z,3.50
2024-04-18T04:05:17.075Z,2.90
2024-04-18T04:06:17.130Z,3.20
2024-04-18T04:07:17.069Z,3.20
2024-04-18T04:08:17.074Z,3.20
2024-04-18T04:09:17.063Z,3.00
2024-04-18T04:10:17.018Z,3.30
2024-04-18T04:11:17.122Z,3.40
2024-04-18T04:12:17.042Z,3.30
2024-04-18T04:13:17.001Z,3.20
2024-04-18T04:14:16.985Z,3.20
2024-04-18T04:15:16.993Z,3.50
2024-04-18T04:16:16.970Z,3.90
2024-04-18T04:17:16.965Z,3.00
2024-04-18T04:18:16.991Z,3.00
2024-04-18T04:19:16.990Z,2.60
2024-04-18T04:20:16.915Z,3.00
2024-04-18T04:21:16.954Z,3.50
2024-04-18T04:22:16.922Z,3.30
2024-04-18T04:23:16.875Z,3.00
2024-04-18T04:24:16.946Z,3.00
2024-04-18T04:25:16.856Z,3.30
2024-04-18T04:26:16.865Z,2.90
2024-04-18T04:27:16.958Z,3.20
2024-04-18T04:28:16.855Z,3.20
2024-04-18T04:29:16.793Z,3.40
2024-04-18T04:30:16.875Z,3.40
2024-04-18T04:31:16.782Z,3.20
2024-04-18T04:32:16.879Z,3.40
2024-04-18T04:33:16.867Z,3.00
2024-04-18T04:34:16.816Z,3.00
2024-04-18T04:35:16.776Z,3.30
2024-04-18T04:36:16.743Z,3.20
2024-04-18T04:37:16.890Z,3.90
2024-04-18T04:38:16.727Z,3.60
2024-04-18T04:39:16.754Z,3.20
2024-04-18T04:40:16.688Z,3.00
2024-04-18T04:41:16.682Z,3.20
2024-04-18T04:42:16.807Z,3.30
2024-04-18T04:43:16.711Z,2.90
2024-04-18T04:44:16.660Z,2.90
2024-04-18T04:45:16.754Z,3.60
2024-04-18T04:46:16.650Z,2.90
2024-04-18T04:47:16.640Z,3.10
2024-04-18T04:48:16.694Z,3.30
2024-04-18T04:49:16.727Z,2.90
2024-04-18T04:50:16.605Z,2.90
2024-04-18T04:51:16.601Z,3.20
2024-04-18T04:52:16.551Z,3.20
2024-04-18T04:53:16.571Z,3.20
2024-04-18T04:54:16.541Z,3.10
2024-04-18T04:55:16.634Z,2.80
2024-04-18T04:56:16.512Z,2.90
2024-04-18T04:57:16.566Z,3.50
2024-04-18T04:58:16.479Z,3.30
2024-04-18T04:59:16.479Z,2.90
2024-04-18T05:00:16.498Z,3.00
2024-04-18T05:01:16.473Z,3.30
2024-04-18T05:02:16.486Z,3.00
2024-04-18T05:03:16.482Z,3.20
2024-04-18T05:04:16.431Z,3.00
2024-04-18T05:05:16.439Z,3.40
2024-04-18T05:06:16.415Z,3.00
2024-04-18T05:07:16.391Z,3.10
2024-04-18T05:08:16.385Z,2.80
2024-04-18T05:09:16.370Z,3.10
2024-04-18T05:10:16.381Z,3.20
2024-04-18T05:11:16.356Z,3.40
2024-04-18T05:12:16.361Z,3.00
2024-04-18T05:13:16.311Z,3.10
2024-04-18T05:14:16.323Z,3.50
2024-04-18T05:15:16.331Z,3.00
2024-04-18T05:16:16.301Z,3.30
2024-04-18T05:17:16.274Z,2.90
2024-04-18T05:18:16.350Z,2.70
2024-04-18T05:19:16.246Z,3.40
2024-04-18T05:20:16.261Z,3.20
2024-04-18T05:21:16.281Z,3.20
2024-04-18T05:22:16.226Z,3.00
2024-04-18T05:23:16.213Z,2.90
2024-04-18T05:24:16.235Z,2.90
2024-04-18T05:25:16.189Z,2.60
2024-04-18T05:26:16.231Z,3.10
2024-04-18T05:27:16.195Z,3.00
2024-04-18T05:28:16.146Z,2.90
2024-04-18T05:29:16.132Z,3.50
2024-04-18T05:30:16.233Z,2.70
2024-04-18T05:31:16.123Z,3.20
2024-04-18T05:32:16.112Z,3.80
2024-04-18T05:33:16.109Z,3.10
2024-04-18T05:34:16.083Z,3.00
2024-04-18T05:35:16.079Z,3.10
2024-04-18T05:36:16.085Z,2.70
2024-04-18T05:37:16.989Z,3.10
2024-04-18T05:38:16.056Z,3.20
2024-04-18T05:39:16.066Z,3.00
2024-04-18T05:40:16.021Z,3.00
2024-04-18T05:41:16.027Z,2.90
2024-04-18T05:42:15.989Z,3.50
2024-04-18T05:43:15.988Z,3.10
2024-04-18T05:44:15.968Z,3.50
2024-04-18T05:45:15.969Z,3.00
2024-04-18T05:46:15.995Z,3.10
2024-04-18T05:47:16.018Z,2.80
2024-04-18T05:48:15.923Z,3.00
2024-04-18T05:49:15.929Z,3.00
2024-04-18T05:50:15.910Z,2.80
2024-04-18T05:51:15.892Z,3.10
2024-04-18T05:52:15.900Z,2.90
2024-04-18T05:53:15.870Z,3.20
2024-04-18T05:54:15.855Z,3.10
2024-04-18T05:55:15.851Z,3.20
2024-04-18T05:56:15.847Z,3.10
2024-04-18T05:57:15.854Z,2.70
2024-04-18T05:58:15.809Z,2.80
2024-04-18T05:59:15.797Z,3.00
2024-04-18T06:00:15.800Z,2.90
2024-04-18T06:01:15.920Z,2.90
2024-04-18T06:02:15.802Z,2.90
2024-04-18T06:03:15.738Z,3.00
2024-04-18T06:04:15.771Z,2.60
2024-04-18T06:05:15.759Z,3.10
2024-04-18T06:06:15.842Z,3.00
2024-04-18T06:07:15.723Z,3.10
2024-04-18T06:08:15.696Z,3.40
2024-04-18T06:09:15.688Z,3.00
2024-04-18T06:10:15.687Z,3.00
2024-04-18T06:11:15.705Z,2.90
2024-04-18T06:12:15.675Z,2.70
2024-04-18T06:13:15.641Z,3.00
2024-04-18T06:14:15.633Z,3.30
2024-04-18T06:15:15.609Z,2.70
2024-04-18T06:16:15.648Z,2.70
2024-04-18T06:17:15.638Z,2.90
2024-04-18T06:18:15.590Z,3.10
2024-04-18T06:19:15.595Z,2.60
2024-04-18T06:20:15.567Z,2.70
2024-04-18T06:21:15.624Z,2.60
2024-04-18T06:22:15.630Z,3.00
2024-04-18T06:23:15.556Z,2.70
2024-04-18T06:24:15.528Z,2.70
2024-04-18T06:25:15.585Z,2.50
2024-04-18T06:26:15.527Z,3.00
2024-04-18T06:27:15.468Z,2.90
2024-04-18T06:28:15.531Z,2.90
2024-04-18T06:29:15.536Z,2.60
2024-04-18T06:30:15.461Z,2.60
2024-04-18T06:31:15.496Z,3.10
2024-04-18T06:32:15.419Z,3.30
2024-04-18T06:33:15.544Z,2.70
2024-04-18T06:34:15.418Z,3.00
2024-04-18T06:35:15.393Z,3.10
2024-04-18T06:36:15.433Z,3.10
2024-04-18T06:37:15.391Z,3.30
2024-04-18T06:38:15.369Z,2.70
2024-04-18T06:39:15.414Z,2.80
2024-04-18T06:40:15.336Z,3.10
2024-04-18T06:41:15.344Z,3.20
2024-04-18T06:42:15.320Z,2.80
2024-04-18T06:43:15.315Z,2.40
2024-04-18T06:44:15.300Z,2.80
2024-04-18T06:45:15.268Z,2.80
2024-04-18T06:46:15.257Z,2.80
2024-04-18T06:47:15.274Z,3.10
2024-04-18T06:48:15.349Z,3.60
2024-04-18T06:49:15.237Z,3.60
2024-04-18T06:50:15.235Z,3.90
2024-04-18T06:51:15.201Z,2.80
2024-04-18T06:52:15.199Z,2.90
2024-04-18T06:53:15.200Z,2.70
2024-04-18T06:54:15.199Z,2.90
2024-04-18T06:55:15.165Z,3.00
2024-04-18T06:56:15.150Z,2.70
2024-04-18T06:57:15.129Z,2.80
2024-04-18T06:58:15.135Z,2.50
2024-04-18T06:59:15.139Z,2.70
2024-04-18T07:00:15.099Z,2.50
2024-04-18T07:01:15.293Z,2.60
2024-04-18T07:02:15.077Z,4.00
2024-04-18T07:03:15.195Z,2.10
2024-04-18T07:04:15.180Z,2.50
2024-04-18T07:05:15.102Z,2.60
2024-04-18T07:06:15.035Z,2.60
2024-04-18T07:07:15.028Z,2.50
2024-04-18T07:08:15.062Z,2.70
2024-04-18T07:09:15.010Z,2.90
2024-04-18T07:10:14.999Z,2.60
2024-04-18T07:11:15.019Z,2.70
2024-04-18T07:12:14.967Z,2.60
2024-04-18T07:13:14.965Z,2.30
2024-04-18T07:14:14.971Z,2.40
2024-04-18T07:15:14.944Z,2.40
2024-04-18T07:16:14.952Z,2.90
2024-04-18T07:17:14.916Z,2.50
2024-04-18T07:18:14.967Z,2.70
2024-04-18T07:19:15.015Z,2.60
2024-04-18T07:20:14.874Z,2.70
2024-04-18T07:21:14.866Z,2.50
2024-04-18T07:22:14.891Z,2.80
2024-04-18T07:23:14.842Z,2.70
2024-04-18T07:24:14.865Z,2.70
2024-04-18T07:25:14.827Z,2.90
2024-04-18T07:26:14.827Z,2.30
2024-04-18T07:27:14.817Z,2.50
2024-04-18T07:28:14.796Z,2.70
2024-04-18T07:29:14.781Z,2.20
2024-04-18T07:30:14.796Z,2.30
2024-04-18T07:31:14.753Z,2.10
2024-04-18T07:32:14.739Z,2.40
2024-04-18T07:33:14.921Z,2.10
2024-04-18T07:34:14.787Z,2.50
2024-04-18T07:35:14.744Z,2.80
2024-04-18T07:36:14.754Z,2.50
2024-04-18T07:37:14.689Z,2.40
2024-04-18T07:38:14.676Z,2.20
2024-04-18T07:39:14.662Z,2.30
2024-04-18T07:40:14.661Z,3.10
2024-04-18T07:41:14.641Z,2.30
2024-04-18T07:42:14.620Z,2.00
2024-04-18T07:43:14.600Z,2.40
2024-04-18T07:44:14.612Z,2.20
2024-04-18T07:45:14.614Z,2.40
2024-04-18T07:46:14.620Z,2.60
2024-04-18T07:47:14.619Z,2.80
2024-04-18T07:48:14.617Z,3.80
2024-04-18T07:49:14.586Z,3.10
2024-04-18T07:50:14.564Z,4.50
2024-04-18T07:51:14.510Z,3.20
2024-04-18T07:52:17.239Z,2.80
2024-04-18T07:53:14.515Z,2.30
2024-04-18T07:54:14.495Z,2.40
2024-04-18T07:55:14.482Z,2.40
2024-04-18T07:56:14.919Z,2.60
2024-04-18T07:57:15.157Z,2.80
2024-04-18T07:58:14.890Z,3.60
2024-04-18T07:59:15.256Z,2.50
2024-04-18T08:00:15.296Z,2.50
2024-04-18T08:01:15.740Z,2.50
2024-04-18T08:02:15.800Z,2.30
2024-04-18T08:03:15.961Z,2.80
2024-04-18T08:05:16.173Z,2.10
2024-04-18T08:06:16.229Z,2.40
2024-04-18T08:07:17.129Z,2.60
2024-04-18T08:08:16.335Z,2.10
2024-04-18T08:09:17.304Z,2.50
2024-04-18T08:10:17.990Z,2.20
2024-04-18T08:12:24.174Z,2.50
2024-04-18T08:13:17.687Z,2.50
2024-04-18T08:14:17.200Z,2.40
2024-04-18T08:15:17.691Z,2.80
2024-04-18T08:16:15.588Z,2.70
2024-04-18T08:17:14.349Z,2.60
2024-04-18T08:18:14.225Z,2.60
2024-04-18T08:19:14.211Z,2.60
2024-04-18T08:20:14.188Z,2.30
2024-04-18T08:21:14.227Z,2.30
2024-04-18T08:22:14.172Z,1.80
2024-04-18T08:23:14.360Z,2.30
2024-04-18T08:24:14.187Z,2.10
2024-04-18T08:25:14.204Z,2.20
2024-04-18T08:26:14.147Z,2.50
2024-04-18T08:27:14.151Z,2.00
2024-04-18T08:28:14.129Z,2.20
2024-04-18T08:29:14.097Z,2.40
2024-04-18T08:30:14.105Z,2.40
2024-04-18T08:31:14.091Z,2.40
2024-04-18T08:32:14.074Z,2.20
2024-04-18T08:33:14.274Z,2.20
2024-04-18T08:34:18.077Z,2.40
2024-04-18T08:35:14.027Z,2.30
2024-04-18T08:36:14.104Z,2.30
2024-04-18T08:37:14.003Z,2.80
2024-04-18T08:38:13.984Z,2.50
2024-04-18T08:39:13.976Z,2.30
2024-04-18T08:40:13.969Z,2.30
2024-04-18T08:41:13.980Z,2.30
2024-04-18T08:42:14.095Z,2.20
2024-04-18T08:43:13.932Z,2.50
2024-04-18T08:44:13.938Z,2.20
2024-04-18T08:45:13.919Z,2.20
2024-04-18T08:46:13.916Z,2.30
2024-04-18T08:47:13.958Z,1.90
2024-04-18T08:48:13.994Z,2.20
2024-04-18T08:49:13.933Z,2.20
2024-04-18T08:50:13.859Z,2.30
2024-04-18T08:51:13.869Z,2.20
2024-04-18T08:52:13.862Z,2.50
2024-04-18T08:53:13.826Z,2.40
2024-04-18T08:54:13.846Z,2.10
2024-04-18T08:55:13.815Z,2.40
2024-04-18T08:56:13.787Z,2.00
2024-04-18T08:57:13.767Z,1.80
2024-04-18T08:58:13.775Z,2.00
2024-04-18T08:59:13.915Z,2.10
2024-04-18T09:00:13.813Z,1.90
2024-04-18T09:01:13.748Z,2.20
2024-04-18T09:02:13.794Z,2.20
2024-04-18T09:03:13.751Z,1.80
2024-04-18T09:04:13.723Z,2.20
2024-04-18T09:05:13.750Z,2.10
2024-04-18T09:06:13.716Z,1.70
2024-04-18T09:07:13.663Z,2.00
2024-04-18T09:08:13.654Z,1.90
2024-04-18T09:09:13.660Z,2.00
2024-04-18T09:10:13.762Z,2.40
2024-04-18T09:11:13.649Z,2.00
2024-04-18T09:12:13.610Z,1.70
2024-04-18T09:13:13.600Z,2.00
2024-04-18T09:14:13.568Z,2.10
2024-04-18T09:15:13.601Z,2.00
2024-04-18T09:16:13.596Z,2.10
2024-04-18T09:17:13.556Z,1.80
2024-04-18T09:18:13.666Z,2.10
2024-04-18T09:19:14.347Z,1.70
2024-04-18T09:20:13.517Z,2.30
2024-04-18T09:21:13.539Z,2.10
2024-04-18T09:22:13.505Z,1.80
2024-04-18T09:23:13.486Z,2.10
2024-04-18T09:24:13.518Z,2.00
2024-04-18T09:25:13.484Z,2.10
2024-04-18T09:26:13.444Z,1.90
2024-04-18T09:27:13.490Z,2.20
2024-04-18T09:28:13.422Z,1.80
2024-04-18T09:29:13.427Z,2.90
2024-04-18T09:30:13.471Z,2.00
2024-04-18T09:31:15.398Z,1.90
2024-04-18T09:32:13.414Z,2.70
2024-04-18T09:33:13.633Z,2.40
2024-04-18T09:34:13.383Z,2.70
2024-04-18T09:35:13.346Z,1.90
2024-04-18T09:36:13.353Z,2.00
2024-04-18T09:37:13.321Z,2.50
2024-04-18T09:38:13.329Z,2.10
2024-04-18T09:39:13.842Z,2.00
2024-04-18T09:40:13.287Z,1.80
2024-04-18T09:41:13.285Z,1.90
2024-04-18T09:42:13.300Z,1.90
2024-04-18T09:43:13.284Z,2.10
2024-04-18T09:44:13.248Z,2.10
2024-04-18T09:45:13.246Z,2.20
2024-04-18T09:46:13.238Z,1.90
2024-04-18T09:47:13.223Z,2.00
2024-04-18T09:48:13.408Z,1.80
2024-04-18T09:49:13.532Z,2.00
2024-04-18T09:50:13.187Z,2.00
2024-04-18T09:51:13.212Z,2.20
2024-04-18T09:52:13.172Z,1.80
2024-04-18T09:53:13.139Z,1.90
2024-04-18T09:54:13.154Z,2.10
2024-04-18T09:55:13.116Z,1.80
2024-04-18T09:56:13.190Z,1.70
2024-04-18T09:57:13.108Z,1.60
2024-04-18T09:58:13.152Z,1.60
2024-04-18T09:59:13.108Z,1.40
2024-04-18T10:00:13.233Z,1.70
2024-04-18T10:01:13.190Z,1.60
2024-04-18T10:02:13.175Z,1.50
2024-04-18T10:03:13.152Z,1.50
2024-04-18T10:04:13.299Z,1.50
2024-04-18T10:05:13.048Z,1.70
2024-04-18T10:06:13.043Z,1.50
2024-04-18T10:07:13.481Z,1.60
2024-04-18T10:08:13.039Z,1.80
2024-04-18T10:09:13.015Z,1.80
2024-04-18T10:10:12.962Z,1.40
2024-04-18T10:11:13.045Z,1.40
2024-04-18T10:12:12.984Z,1.60
2024-04-18T10:13:13.826Z,1.50
2024-04-18T10:14:13.028Z,1.30
2024-04-18T10:15:13.988Z,1.30
2024-04-18T10:16:12.931Z,1.00
2024-04-18T10:17:12.914Z,1.10
2024-04-18T10:18:13.115Z,1.40
2024-04-18T10:19:13.137Z,1.30
2024-04-18T10:20:12.845Z,1.50
2024-04-18T10:21:12.951Z,1.60
2024-04-18T10:22:23.479Z,1.40
2024-04-18T10:23:12.874Z,1.30
2024-04-18T10:24:12.904Z,1.20
2024-04-18T10:25:12.817Z,1.40
2024-04-18T10:26:12.809Z,1.20
2024-04-18T10:27:12.842Z,1.60
2024-04-18T10:28:12.801Z,1.60
2024-04-18T10:29:12.826Z,1.50
2024-04-18T10:30:12.770Z,1.30
2024-04-18T10:31:12.795Z,1.50
2024-04-18T10:32:12.786Z,1.30
2024-04-18T10:33:12.815Z,1.20
2024-04-18T10:34:12.734Z,1.00
2024-04-18T10:35:12.688Z,1.20
2024-04-18T10:36:12.696Z,1.60
2024-04-18T10:37:12.682Z,1.20
2024-04-18T10:38:12.676Z,1.60
2024-04-18T10:39:12.741Z,1.60
2024-04-18T10:40:12.677Z,1.40
2024-04-18T10:41:12.651Z,1.50
2024-04-18T10:42:12.641Z,1.50
2024-04-18T10:43:14.356Z,1.40
2024-04-18T10:44:12.593Z,1.40
2024-04-18T10:45:12.677Z,1.20
2024-04-18T10:46:12.570Z,1.50
2024-04-18T10:47:12.578Z,1.40
2024-04-18T10:48:12.807Z,1.30
2024-04-18T10:49:12.708Z,1.40
2024-04-18T10:50:12.534Z,1.30
2024-04-18T10:51:12.535Z,1.00
2024-04-18T10:52:12.600Z,1.00
2024-04-18T10:53:12.498Z,1.60
2024-04-18T10:54:12.523Z,1.50
2024-04-18T10:55:12.504Z,1.20
2024-04-18T10:56:12.456Z,1.00
2024-04-18T10:57:12.515Z,1.30
2024-04-18T10:58:12.432Z,1.10
2024-04-18T10:59:12.485Z,1.30
2024-04-18T11:00:12.464Z,1.10
2024-04-18T11:01:12.418Z,1.30
2024-04-18T11:02:12.464Z,1.00
2024-04-18T11:03:12.503Z,1.00
2024-04-18T11:04:12.478Z,1.10
2024-04-18T11:05:12.413Z,1.00
2024-04-18T11:06:12.376Z,1.20
2024-04-18T11:07:12.445Z,0.80
2024-04-18T11:08:12.311Z,1.10
2024-04-18T11:09:12.445Z,1.00
2024-04-18T11:10:12.284Z,1.20
2024-04-18T11:11:12.294Z,1.20
2024-04-18T11:12:12.271Z,1.30
2024-04-18T11:13:12.298Z,1.20
2024-04-18T11:14:13.681Z,1.20
2024-04-18T11:15:12.352Z,1.30
2024-04-18T11:16:12.220Z,1.30
2024-04-18T11:17:12.222Z,1.50
2024-04-18T11:18:12.322Z,1.20
2024-04-18T11:19:12.643Z,1.20
2024-04-18T11:20:12.167Z,1.50
2024-04-18T11:21:12.161Z,1.10
2024-04-18T11:22:12.172Z,1.20
2024-04-18T11:23:15.531Z,1.30
2024-04-18T11:24:12.190Z,1.10
2024-04-18T11:25:12.175Z,1.20
2024-04-18T11:26:12.123Z,1.20
2024-04-18T11:27:12.137Z,1.30
2024-04-18T11:28:12.126Z,1.30
2024-04-18T11:29:12.527Z,1.20
2024-04-18T11:30:12.111Z,1.20
2024-04-18T11:31:12.064Z,1.20
2024-04-18T11:32:12.343Z,1.10
2024-04-18T11:33:12.295Z,1.30
2024-04-18T11:34:12.013Z,1.40
2024-04-18T11:35:17.063Z,1.20
2024-04-18T11:36:12.094Z,1.20
2024-04-18T11:37:12.018Z,1.20
2024-04-18T11:38:12.017Z,1.10
2024-04-18T11:39:12.073Z,1.50
2024-04-18T11:40:11.937Z,1.30
2024-04-18T11:41:11.981Z,1.50
2024-04-18T11:42:12.030Z,1.50
2024-04-18T11:43:11.917Z,1.20
2024-04-18T11:44:11.954Z,1.20
2024-04-18T11:45:11.968Z,1.50
2024-04-18T11:46:11.989Z,1.30
2024-04-18T11:47:11.862Z,0.90
2024-04-18T11:48:11.988Z,0.90
2024-04-18T11:49:11.962Z,1.00
2024-04-18T11:50:11.883Z,1.10
2024-04-18T11:51:11.915Z,1.10
2024-04-18T11:52:11.846Z,1.10
2024-04-18T11:53:11.804Z,1.10
2024-04-18T11:54:11.795Z,1.40
2024-04-18T11:55:11.822Z,1.10
2024-04-18T11:56:11.855Z,1.20
2024-04-18T11:57:11.790Z,1.20
2024-04-18T11:58:11.764Z,1.50
2024-04-18T11:59:11.775Z,1.20
2024-04-18T12:00:11.764Z,1.30
2024-04-18T12:01:11.769Z,1.20
2024-04-18T12:02:11.756Z,1.50
2024-04-18T12:03:11.758Z,1.20
2024-04-18T12:04:11.870Z,1.20
2024-04-18T12:05:11.789Z,1.30
2024-04-18T12:06:11.821Z,1.10
2024-04-18T12:07:11.675Z,1.00
2024-04-18T12:08:11.666Z,1.30
2024-04-18T12:09:11.663Z,1.10
2024-04-18T12:10:11.607Z,1.10
2024-04-18T12:11:11.689Z,1.20
2024-04-18T12:12:11.759Z,1.20
2024-04-18T12:13:11.610Z,1.00
2024-04-18T12:14:11.597Z,1.20
2024-04-18T12:15:11.590Z,1.30
2024-04-18T12:16:11.576Z,1.50
2024-04-18T12:17:11.542Z,1.20
2024-04-18T12:18:11.547Z,1.20
2024-04-18T12:19:11.489Z,1.10
2024-04-18T12:20:11.480Z,1.30
2024-04-18T12:21:11.502Z,1.30
2024-04-18T12:22:11.473Z,1.20
2024-04-18T12:23:11.476Z,1.10
2024-04-18T12:24:11.513Z,1.20
2024-04-18T12:25:11.434Z,1.20
2024-04-18T12:26:11.455Z,1.30
2024-04-18T12:27:11.408Z,1.30
2024-04-18T12:28:11.413Z,0.90
2024-04-18T12:29:11.382Z,1.30
2024-04-18T12:30:11.389Z,1.20
2024-04-18T12:31:11.339Z,1.30
2024-04-18T12:32:11.364Z,2.60
2024-04-18T12:33:11.426Z,1.70
2024-04-18T12:34:11.318Z,1.30
2024-04-18T12:35:11.339Z,1.20
2024-04-18T12:36:11.306Z,1.30
2024-04-18T12:37:11.280Z,1.20
2024-04-18T12:38:11.267Z,1.30
2024-04-18T12:39:11.950Z,1.50
2024-04-18T12:40:11.271Z,1.20
2024-04-18T12:41:11.234Z,1.40
2024-04-18T12:42:11.280Z,1.20
2024-04-18T12:43:11.222Z,1.20
2024-04-18T12:44:11.233Z,1.20
2024-04-18T12:45:11.244Z,1.30
2024-04-18T12:46:17.878Z,1.20
2024-04-18T12:47:11.218Z,1.20
2024-04-18T12:48:11.334Z,1.10
2024-04-18T12:49:11.409Z,1.40
2024-04-18T12:50:11.227Z,0.90
2024-04-18T12:51:11.163Z,1.20
2024-04-18T12:52:11.118Z,1.00
2024-04-18T12:53:11.123Z,1.40
2024-04-18T12:54:11.141Z,1.40
2024-04-18T12:55:11.094Z,1.30
2024-04-18T12:56:11.067Z,1.30
2024-04-18T12:57:11.094Z,1.30
2024-04-18T12:58:11.067Z,1.20
2024-04-18T12:59:11.055Z,1.30
2024-04-18T13:00:11.049Z,1.20
2024-04-18T13:01:11.121Z,1.20
2024-04-18T13:02:10.998Z,1.00
2024-04-18T13:03:11.026Z,1.40
2024-04-18T13:04:11.033Z,1.40
2024-04-18T13:05:11.041Z,1.30
2024-04-18T13:06:10.979Z,1.20
2024-04-18T13:07:10.939Z,1.40
2024-04-18T13:08:10.949Z,1.10
2024-04-18T13:09:10.927Z,1.20
2024-04-18T13:10:10.926Z,1.60
2024-04-18T13:11:10.940Z,1.20
2024-04-18T13:12:10.933Z,1.20
2024-04-18T13:13:10.876Z,1.50
2024-04-18T13:14:10.932Z,1.20
2024-04-18T13:15:10.925Z,1.20
2024-04-18T13:16:10.873Z,1.30
2024-04-18T13:17:10.872Z,1.70
2024-04-18T13:18:10.864Z,1.60
2024-04-18T13:19:10.824Z,1.50
2024-04-18T13:20:10.832Z,1.60